createdAt,value
2018-05-17T00:02:18.496Z,950.74
2018-05-17T00:04:44.794Z,950.61
2018-05-17T00:07:11.081Z,950.69
2018-05-17T00:09:37.420Z,950.71
2018-05-17T00:12:03.703Z,950.64
2018-05-17T00:14:29.997Z,950.63
2018-05-17T00:16:56.295Z,950.53
2018-05-17T00:19:22.585Z,950.62
2018-05-17T00:21:48.878Z,950.63
2018-05-17T00:24:15.169Z,950.64
2018-05-17T00:26:41.460Z,950.62
2018-05-17T00:29:07.749Z,950.61
2018-05-17T00:31:34.095Z,950.58
2018-05-17T00:34:00.515Z,950.55
2018-05-17T00:36:26.717Z,950.61
2018-05-17T00:38:53.012Z,950.65
2018-05-17T00:41:19.341Z,950.63
2018-05-17T00:43:45.673Z,950.70
2018-05-17T00:46:11.963Z,950.69
2018-05-17T00:48:38.295Z,950.76
2018-05-17T00:51:04.670Z,950.68
2018-05-17T00:53:30.873Z,950.57
2018-05-17T00:55:57.164Z,950.58
2018-05-17T00:58:23.447Z,950.53
2018-05-17T01:00:49.778Z,950.58
2018-05-17T01:03:16.073Z,950.63
2018-05-17T01:08:08.699Z,950.53
2018-05-17T01:10:34.993Z,950.42
2018-05-17T01:13:01.325Z,950.45
2018-05-17T01:15:27.620Z,950.47
2018-05-17T01:17:53.912Z,950.50
2018-05-17T01:20:20.248Z,950.52
2018-05-17T01:22:46.532Z,950.47
2018-05-17T01:25:12.819Z,950.47
2018-05-17T01:27:39.155Z,950.49
2018-05-17T01:30:05.480Z,950.49
2018-05-17T01:32:31.768Z,950.48
2018-05-17T01:34:58.123Z,950.59
2018-05-17T01:37:24.352Z,950.47
2018-05-17T01:39:50.639Z,950.46
2018-05-17T01:42:16.932Z,950.55
2018-05-17T01:44:43.226Z,950.64
2018-05-17T01:47:09.527Z,950.58
2018-05-17T01:49:35.861Z,950.55
2018-05-17T01:52:02.163Z,950.54
2018-05-17T01:54:28.474Z,950.58
2018-05-17T01:56:54.750Z,950.51
2018-05-17T01:59:21.094Z,950.59
2018-05-17T02:01:47.390Z,950.68
2018-05-17T02:04:13.681Z,950.70
2018-05-17T02:06:39.983Z,950.69
2018-05-17T02:09:06.275Z,950.74
2018-05-17T02:11:32.604Z,950.71
2018-05-17T02:13:58.900Z,950.72
2018-05-17T02:16:25.186Z,950.68
2018-05-17T02:18:51.481Z,950.67
2018-05-17T02:21:17.778Z,950.76
2018-05-17T02:23:44.068Z,950.85
2018-05-17T02:26:10.382Z,950.85
2018-05-17T02:28:36.666Z,950.83
2018-05-17T02:31:02.964Z,950.85
2018-05-17T02:33:29.259Z,950.72
2018-05-17T02:35:55.557Z,950.82
2018-05-17T02:38:21.855Z,950.75
2018-05-17T02:40:48.147Z,950.88
2018-05-17T02:43:14.440Z,950.90
2018-05-17T02:45:40.727Z,950.81
2018-05-17T02:48:07.025Z,950.81
2018-05-17T02:50:33.321Z,950.92
2018-05-17T02:52:59.608Z,951.00
2018-05-17T02:55:25.901Z,950.95
2018-05-17T02:57:52.203Z,951.10
2018-05-17T03:00:18.495Z,951.12
2018-05-17T03:02:44.793Z,951.07
2018-05-17T03:05:11.092Z,951.08
2018-05-17T03:07:37.379Z,951.05
2018-05-17T03:10:03.670Z,951.03
2018-05-17T03:12:29.956Z,951.00
2018-05-17T03:14:56.249Z,951.01
2018-05-17T03:17:22.541Z,951.10
2018-05-17T03:19:48.833Z,951.08
2018-05-17T03:22:15.128Z,951.13
2018-05-17T03:24:41.416Z,951.16
2018-05-17T03:27:07.715Z,951.19
2018-05-17T03:29:34.000Z,951.14
2018-05-17T03:32:00.293Z,951.20
2018-05-17T03:34:26.597Z,951.26
2018-05-17T03:36:52.874Z,951.20
2018-05-17T03:39:19.171Z,951.19
2018-05-17T03:41:45.459Z,951.29
2018-05-17T03:44:11.764Z,951.25
2018-05-17T03:46:38.065Z,951.33
2018-05-17T03:49:04.351Z,951.31
2018-05-17T03:51:30.655Z,951.31
2018-05-17T03:53:56.959Z,951.34
2018-05-17T03:56:23.247Z,951.31
2018-05-17T03:58:49.542Z,951.32
2018-05-17T04:01:15.839Z,951.32
2018-05-17T04:03:42.130Z,951.40
2018-05-17T04:06:08.425Z,951.49
2018-05-17T04:08:34.808Z,951.43
2018-05-17T04:11:01.056Z,951.44
2018-05-17T04:13:27.347Z,951.45
2018-05-17T04:15:53.636Z,951.53
2018-05-17T04:18:19.947Z,951.56
2018-05-17T04:20:46.227Z,951.55
2018-05-17T04:23:12.566Z,951.67
2018-05-17T04:25:38.851Z,951.58
2018-05-17T04:28:05.143Z,951.61
2018-05-17T04:30:31.450Z,951.70
2018-05-17T04:32:57.778Z,951.62
2018-05-17T04:35:24.075Z,951.72
2018-05-17T04:37:50.356Z,951.65
2018-05-17T04:40:16.644Z,951.65
2018-05-17T04:42:42.951Z,951.71
2018-05-17T04:45:09.255Z,951.72
2018-05-17T04:47:35.553Z,951.70
2018-05-17T04:50:01.851Z,951.72
2018-05-17T04:52:28.137Z,951.67
2018-05-17T04:54:54.473Z,951.70
2018-05-17T04:57:20.763Z,951.75
2018-05-17T04:59:47.097Z,951.72
2018-05-17T05:02:13.394Z,951.75
2018-05-17T05:04:39.684Z,951.85
2018-05-17T05:07:05.994Z,951.78
2018-05-17T05:09:32.368Z,951.69
2018-05-17T05:11:58.622Z,951.70
2018-05-17T05:14:24.915Z,951.69
2018-05-17T05:16:51.251Z,951.77
2018-05-17T05:19:17.543Z,951.79
2018-05-17T05:21:43.831Z,951.73
2018-05-17T05:24:10.122Z,951.69
2018-05-17T05:26:36.413Z,951.64
2018-05-17T05:29:02.718Z,951.63
2018-05-17T05:31:29.048Z,951.70
2018-05-17T05:33:55.345Z,951.70
2018-05-17T05:36:21.637Z,951.77
2018-05-17T05:38:47.975Z,951.77
2018-05-17T05:41:14.265Z,951.80
2018-05-17T05:43:40.608Z,951.83
2018-05-17T05:46:06.906Z,951.92
2018-05-17T05:48:33.249Z,951.83
2018-05-17T05:50:59.536Z,951.76
2018-05-17T05:53:30.247Z,951.79
2018-05-17T05:55:52.111Z,951.80
2018-05-17T05:58:18.400Z,951.83
2018-05-17T06:00:44.732Z,951.77
2018-05-17T06:03:11.020Z,951.77
2018-05-17T06:05:37.311Z,951.77
2018-05-17T06:08:03.631Z,951.71
2018-05-17T06:10:29.922Z,951.71
2018-05-17T06:12:56.210Z,951.77
2018-05-17T06:15:22.512Z,951.76
2018-05-17T06:17:48.810Z,951.70
2018-05-17T06:20:15.104Z,951.75
2018-05-17T06:22:41.405Z,951.78
2018-05-17T06:25:07.704Z,951.80
2018-05-17T06:27:34.026Z,951.79
2018-05-17T06:30:00.330Z,951.82
2018-05-17T06:32:26.626Z,951.75
2018-05-17T06:34:52.929Z,951.76
2018-05-17T06:37:19.221Z,951.77
2018-05-17T06:39:45.516Z,951.73
2018-05-17T06:42:11.815Z,951.73
2018-05-17T06:44:38.109Z,951.72
2018-05-17T06:47:04.405Z,951.66
2018-05-17T06:49:30.693Z,951.60
2018-05-17T06:51:57.073Z,951.46
2018-05-17T06:54:23.279Z,951.57
2018-05-17T06:56:49.576Z,951.52
2018-05-17T06:59:15.873Z,951.56
2018-05-17T07:01:42.161Z,951.58
2018-05-17T07:04:08.455Z,951.63
2018-05-17T07:06:34.792Z,951.61
2018-05-17T07:09:01.051Z,951.58
2018-05-17T07:11:27.335Z,951.56
2018-05-17T07:13:53.632Z,951.60
2018-05-17T07:16:19.923Z,951.50
2018-05-17T07:18:46.515Z,951.48
2018-05-17T07:21:12.531Z,951.50
2018-05-17T07:23:38.827Z,951.50
2018-05-17T07:26:05.125Z,951.54
2018-05-17T07:28:31.433Z,951.57
2018-05-17T07:30:57.731Z,951.54
2018-05-17T07:33:24.040Z,951.58
2018-05-17T07:35:50.378Z,951.51
2018-05-17T07:38:16.670Z,951.52
2018-05-17T07:40:42.959Z,951.61
2018-05-17T07:43:09.303Z,951.57
2018-05-17T07:45:35.586Z,951.64
2018-05-17T07:48:01.885Z,951.64
2018-05-17T07:50:28.178Z,951.60
2018-05-17T07:52:54.527Z,951.57
2018-05-17T07:55:20.821Z,951.61
2018-05-17T07:57:47.178Z,951.53
2018-05-17T08:00:13.462Z,951.56
2018-05-17T08:02:39.748Z,951.60
2018-05-17T08:05:06.048Z,951.59
2018-05-17T08:07:32.386Z,951.59
2018-05-17T08:09:58.686Z,951.58
2018-05-17T08:12:24.985Z,951.55
2018-05-17T08:14:51.327Z,951.61
2018-05-17T08:17:17.627Z,951.58
2018-05-17T08:19:43.915Z,951.61
2018-05-17T08:22:10.208Z,951.60
2018-05-17T08:24:36.498Z,951.54
2018-05-17T08:27:02.802Z,951.57
2018-05-17T08:29:29.093Z,951.48
2018-05-17T08:31:55.433Z,951.51
2018-05-17T08:34:21.764Z,951.56
2018-05-17T08:36:48.167Z,951.54
2018-05-17T08:39:14.344Z,951.52
2018-05-17T08:41:40.638Z,951.64
2018-05-17T08:44:06.978Z,951.54
2018-05-17T08:46:33.269Z,951.54
2018-05-17T08:48:59.659Z,951.59
2018-05-17T08:51:25.959Z,951.54
2018-05-17T08:53:52.261Z,951.57
2018-05-17T08:56:18.549Z,951.55
2018-05-17T08:58:44.852Z,951.60
2018-05-17T09:01:11.145Z,951.56
2018-05-17T09:03:37.449Z,951.48
2018-05-17T09:06:03.752Z,951.51
2018-05-17T09:08:30.047Z,951.52
2018-05-17T09:10:56.375Z,951.46
2018-05-17T09:13:22.676Z,951.46
2018-05-17T09:15:48.970Z,951.51
2018-05-17T09:18:15.260Z,951.46
2018-05-17T09:20:41.549Z,951.52
2018-05-17T09:23:07.840Z,951.52
2018-05-17T09:25:34.142Z,951.47
2018-05-17T09:28:00.432Z,951.41
2018-05-17T09:30:26.762Z,951.42
2018-05-17T09:32:53.053Z,951.41
2018-05-17T09:35:19.356Z,951.28
2018-05-17T09:37:45.669Z,951.31
2018-05-17T09:40:12.004Z,951.28
2018-05-17T09:42:38.291Z,951.28
2018-05-17T09:45:04.586Z,951.33
2018-05-17T09:47:30.905Z,951.34
2018-05-17T09:49:57.169Z,951.40
2018-05-17T09:52:23.461Z,951.28
2018-05-17T09:54:49.761Z,951.29
2018-05-17T09:57:16.051Z,951.33
2018-05-17T09:59:42.346Z,951.32
2018-05-17T10:02:08.673Z,951.26
2018-05-17T10:04:34.968Z,951.30
2018-05-17T10:07:01.267Z,951.27
2018-05-17T10:09:27.564Z,951.36
2018-05-17T10:11:53.853Z,951.31
2018-05-17T10:14:20.139Z,951.31
2018-05-17T10:16:46.472Z,951.22
2018-05-17T10:19:12.781Z,951.28
2018-05-17T10:21:39.073Z,951.30
2018-05-17T10:24:05.372Z,951.21
2018-05-17T10:26:31.669Z,951.07
2018-05-17T10:28:57.999Z,951.13
2018-05-17T10:31:24.291Z,951.14
2018-05-17T10:33:50.584Z,951.09
2018-05-17T10:36:16.880Z,951.16
2018-05-17T10:38:43.171Z,951.16
2018-05-17T10:41:09.490Z,951.12
2018-05-17T10:43:35.779Z,951.03
2018-05-17T10:46:02.110Z,951.00
2018-05-17T10:48:28.391Z,951.08
2018-05-17T10:50:54.680Z,950.96
2018-05-17T10:53:20.983Z,950.93
2018-05-17T10:55:47.273Z,950.89
2018-05-17T10:58:13.566Z,950.96
2018-05-17T11:00:39.892Z,950.92
2018-05-17T11:03:06.169Z,950.90
2018-05-17T11:05:32.777Z,950.91
2018-05-17T11:07:59.007Z,950.85
2018-05-17T11:10:25.303Z,950.86
2018-05-17T11:12:51.594Z,950.80
2018-05-17T11:15:17.902Z,950.78
2018-05-17T11:17:44.195Z,950.74
2018-05-17T11:20:10.489Z,950.73
2018-05-17T11:22:36.796Z,950.67
2018-05-17T11:25:03.079Z,950.70
2018-05-17T11:27:29.376Z,950.65
2018-05-17T11:29:55.667Z,950.78
2018-05-17T11:32:21.955Z,950.71
2018-05-17T11:34:48.285Z,950.72
2018-05-17T11:37:14.582Z,950.64
2018-05-17T11:39:40.883Z,950.74
2018-05-17T11:42:07.185Z,950.80
2018-05-17T11:44:33.479Z,950.74
2018-05-17T11:46:59.786Z,950.78
2018-05-17T11:49:26.071Z,950.79
2018-05-17T11:51:52.369Z,950.83
2018-05-17T11:54:18.668Z,950.82
2018-05-17T11:56:44.968Z,950.75
2018-05-17T11:59:11.264Z,950.81
2018-05-17T12:01:37.564Z,950.81
2018-05-17T12:04:03.859Z,950.82
2018-05-17T12:06:30.153Z,950.71
2018-05-17T12:08:57.382Z,950.76
2018-05-17T12:11:23.677Z,950.75
2018-05-17T12:13:49.968Z,950.71
2018-05-17T12:16:16.271Z,950.71
2018-05-17T12:18:42.556Z,950.63
2018-05-17T12:21:08.870Z,950.55
2018-05-17T12:23:35.152Z,950.62
2018-05-17T12:26:01.480Z,950.54
2018-05-17T12:28:27.814Z,950.55
2018-05-17T12:30:54.099Z,950.55
2018-05-17T12:33:20.389Z,950.48
2018-05-17T12:35:46.684Z,950.49
2018-05-17T12:38:13.129Z,950.52
2018-05-17T12:40:39.308Z,950.42
2018-05-17T12:43:05.595Z,950.41
2018-05-17T12:45:31.931Z,950.41
2018-05-17T12:47:58.225Z,950.47
2018-05-17T12:50:24.521Z,950.41
2018-05-17T12:52:50.914Z,950.44
2018-05-17T12:55:17.135Z,950.43
2018-05-17T12:57:43.469Z,950.40
2018-05-17T13:00:09.762Z,950.39
2018-05-17T13:02:36.052Z,950.37
2018-05-17T13:05:02.384Z,950.36
2018-05-17T13:07:28.696Z,950.39
2018-05-17T13:09:54.984Z,950.41
2018-05-17T13:12:21.275Z,950.34
2018-05-17T13:14:47.567Z,950.33
2018-05-17T13:17:13.855Z,950.27
2018-05-17T13:19:40.176Z,950.27
2018-05-17T13:22:06.469Z,950.32
2018-05-17T13:24:32.764Z,950.33
2018-05-17T13:26:59.086Z,950.34
2018-05-17T13:29:25.382Z,950.35
2018-05-17T13:31:51.679Z,950.33
2018-05-17T13:34:18.015Z,950.29
2018-05-17T13:36:44.313Z,950.32
2018-05-17T13:39:10.646Z,950.43
2018-05-17T13:41:36.949Z,950.38
2018-05-17T13:44:03.527Z,950.41
2018-05-17T13:46:29.824Z,950.41
2018-05-17T13:48:56.131Z,950.34
2018-05-17T13:51:22.431Z,950.38
2018-05-17T13:53:48.720Z,950.46
2018-05-17T13:56:15.026Z,950.41
2018-05-17T13:58:41.317Z,950.40
2018-05-17T14:01:07.683Z,950.44
2018-05-17T14:03:33.927Z,950.47
2018-05-17T14:06:00.222Z,950.38
2018-05-17T14:08:26.522Z,950.41
2018-05-17T14:10:52.812Z,950.44
2018-05-17T14:13:19.121Z,950.36
2018-05-17T14:15:45.423Z,950.39
2018-05-17T14:18:11.755Z,950.39
2018-05-17T14:20:38.063Z,950.45
2018-05-17T14:23:04.424Z,950.40
2018-05-17T14:25:30.648Z,950.37
2018-05-17T14:27:56.948Z,950.37
2018-05-17T14:30:23.268Z,950.45
2018-05-17T14:32:49.556Z,950.45
2018-05-17T14:35:15.858Z,950.43
2018-05-17T14:37:42.166Z,950.41
2018-05-17T14:40:08.454Z,950.44
2018-05-17T14:42:34.753Z,950.49
2018-05-17T14:45:01.042Z,950.45
2018-05-17T14:47:27.333Z,950.50
2018-05-17T14:49:53.631Z,950.52
2018-05-17T14:52:19.925Z,950.51
2018-05-17T14:54:46.219Z,950.43
2018-05-17T14:57:12.514Z,950.39
2018-05-17T14:59:38.822Z,950.47
2018-05-17T15:02:05.116Z,950.51
2018-05-17T15:04:31.404Z,950.46
2018-05-17T15:06:57.697Z,950.46
2018-05-17T15:09:23.993Z,950.44
2018-05-17T15:11:50.315Z,950.44
2018-05-17T15:14:16.610Z,950.41
2018-05-17T15:16:42.917Z,950.44
2018-05-17T15:19:09.241Z,950.47
2018-05-17T15:21:35.540Z,950.41
2018-05-17T15:24:01.828Z,950.45
2018-05-17T15:26:28.119Z,950.45
2018-05-17T15:28:54.409Z,950.45
2018-05-17T15:31:20.708Z,950.50
2018-05-17T15:33:47.002Z,950.50
2018-05-17T15:36:13.387Z,950.50
2018-05-17T15:38:39.611Z,950.49
2018-05-17T15:41:05.901Z,950.52
2018-05-17T15:43:32.189Z,950.53
2018-05-17T15:45:58.516Z,950.58
2018-05-17T15:48:24.809Z,950.58
2018-05-17T15:50:51.102Z,950.64
2018-05-17T15:53:17.387Z,950.65
2018-05-17T15:55:43.680Z,950.65
2018-05-17T15:58:09.980Z,950.68
2018-05-17T16:00:36.271Z,950.64
2018-05-17T16:03:02.563Z,950.67
2018-05-17T16:05:28.857Z,950.68
2018-05-17T16:07:55.149Z,950.67
2018-05-17T16:10:21.444Z,950.71
2018-05-17T16:12:47.773Z,950.66
2018-05-17T16:15:14.125Z,950.64
2018-05-17T16:17:40.358Z,950.65
2018-05-17T16:20:06.652Z,950.62
2018-05-17T16:22:32.941Z,950.73
2018-05-17T16:24:59.231Z,950.64
2018-05-17T16:27:25.564Z,950.71
2018-05-17T16:29:51.818Z,950.76
2018-05-17T16:32:18.232Z,950.70
2018-05-17T16:34:44.530Z,950.77
2018-05-17T16:37:10.823Z,950.82
2018-05-17T16:39:37.119Z,950.80
2018-05-17T16:42:03.422Z,950.83
2018-05-17T16:44:29.715Z,950.81
2018-05-17T16:46:56.012Z,950.77
2018-05-17T16:49:22.301Z,950.80
2018-05-17T16:51:48.595Z,950.81
2018-05-17T16:54:14.926Z,950.73
2018-05-17T16:56:41.224Z,950.77
2018-05-17T16:59:07.512Z,950.82
2018-05-17T17:01:33.806Z,950.78
2018-05-17T17:04:00.098Z,950.78
2018-05-17T17:06:26.402Z,950.81
2018-05-17T17:08:52.703Z,950.91
2018-05-17T17:11:18.997Z,950.94
2018-05-17T17:13:45.307Z,950.93
2018-05-17T17:16:11.635Z,950.96
2018-05-17T17:18:37.949Z,950.97
2018-05-17T17:21:04.247Z,950.98
2018-05-17T17:23:30.552Z,951.00
2018-05-17T17:25:56.845Z,951.05
2018-05-17T17:28:23.140Z,951.06
2018-05-17T17:30:49.483Z,951.08
2018-05-17T17:33:15.734Z,951.13
2018-05-17T17:35:42.035Z,951.16
2018-05-17T17:38:08.331Z,951.20
2018-05-17T17:40:34.625Z,951.20
2018-05-17T17:43:00.960Z,951.21
2018-05-17T17:45:27.295Z,951.22
2018-05-17T17:47:53.596Z,951.26
2018-05-17T17:50:20.013Z,951.25
2018-05-17T17:52:46.359Z,951.31
2018-05-17T17:55:12.656Z,951.39
2018-05-17T17:57:38.994Z,951.37
2018-05-17T18:00:05.286Z,951.39
2018-05-17T18:02:31.580Z,951.41
2018-05-17T18:04:57.924Z,951.40
2018-05-17T18:07:24.212Z,951.47
2018-05-17T18:09:50.511Z,951.43
2018-05-17T18:12:16.806Z,951.49
2018-05-17T18:14:43.163Z,951.47
2018-05-17T18:17:09.464Z,951.50
2018-05-17T18:19:35.788Z,951.46
2018-05-17T18:22:02.081Z,951.56
2018-05-17T18:24:28.416Z,951.61
2018-05-17T18:26:54.699Z,951.60
2018-05-17T18:29:20.989Z,951.71
2018-05-17T18:31:47.297Z,951.69
2018-05-17T18:34:13.588Z,951.66
2018-05-17T18:36:39.940Z,951.73
2018-05-17T18:39:06.200Z,951.76
2018-05-17T18:41:32.496Z,951.84
2018-05-17T18:43:58.837Z,951.79
2018-05-17T18:46:25.123Z,951.88
2018-05-17T18:48:51.474Z,951.91
2018-05-17T18:51:17.759Z,951.96
2018-05-17T18:53:44.055Z,952.00
2018-05-17T18:56:10.383Z,952.03
2018-05-17T18:58:36.677Z,952.08
2018-05-17T19:01:02.971Z,952.15
2018-05-17T19:03:29.259Z,952.13
2018-05-17T19:05:55.558Z,952.17
2018-05-17T19:08:21.856Z,952.16
2018-05-17T19:10:48.153Z,952.21
2018-05-17T19:13:14.455Z,952.16
2018-05-17T19:15:40.745Z,952.19
2018-05-17T19:18:07.081Z,952.16
2018-05-17T19:20:33.374Z,952.19
2018-05-17T19:22:59.671Z,952.23
2018-05-17T19:25:25.968Z,952.23
2018-05-17T19:27:52.261Z,952.20
2018-05-17T19:30:18.547Z,952.22
2018-05-17T19:32:44.849Z,952.30
2018-05-17T19:35:11.147Z,952.27
2018-05-17T19:37:37.454Z,952.30
2018-05-17T19:40:03.739Z,952.33
2018-05-17T19:42:30.031Z,952.29
2018-05-17T19:44:56.319Z,952.31
2018-05-17T19:47:22.704Z,952.30
2018-05-17T19:49:48.913Z,952.31
2018-05-17T19:52:15.203Z,952.35
2018-05-17T19:54:41.491Z,952.30
2018-05-17T19:57:07.787Z,952.32
2018-05-17T19:59:34.306Z,952.37
2018-05-17T20:02:00.405Z,952.37
2018-05-17T20:04:26.696Z,952.46
2018-05-17T20:06:53.031Z,952.45
2018-05-17T20:09:19.319Z,952.48
2018-05-17T20:11:45.615Z,952.53
2018-05-17T20:14:11.914Z,952.57
2018-05-17T20:16:38.212Z,952.54
2018-05-17T20:19:04.506Z,952.52
2018-05-17T20:21:30.800Z,952.51
2018-05-17T20:23:57.096Z,952.47
2018-05-17T20:26:23.428Z,952.55
2018-05-17T20:28:49.719Z,952.50
2018-05-17T20:31:16.011Z,952.54
2018-05-17T20:33:42.305Z,952.56
2018-05-17T20:36:08.605Z,952.51
2018-05-17T20:38:34.897Z,952.53
2018-05-17T20:41:01.245Z,952.61
2018-05-17T20:43:27.484Z,952.65
2018-05-17T20:45:53.779Z,952.61
2018-05-17T20:48:20.072Z,952.61
2018-05-17T20:50:46.364Z,952.61
2018-05-17T20:53:12.656Z,952.61
2018-05-17T20:55:38.963Z,952.61
2018-05-17T20:58:05.274Z,952.64
2018-05-17T21:00:31.588Z,952.57
2018-05-17T21:02:57.853Z,952.62
2018-05-17T21:05:24.176Z,952.61
2018-05-17T21:07:50.457Z,952.63
2018-05-17T21:10:16.748Z,952.60
2018-05-17T21:12:43.114Z,952.53
2018-05-17T21:15:09.333Z,952.56
2018-05-17T21:17:35.624Z,952.48
2018-05-17T21:20:01.910Z,952.58
2018-05-17T21:22:28.205Z,952.55
2018-05-17T21:24:54.495Z,952.63
2018-05-17T21:27:20.779Z,952.60
2018-05-17T21:29:47.073Z,952.63
2018-05-17T21:32:13.365Z,952.54
2018-05-17T21:34:39.709Z,952.56
2018-05-17T21:37:05.999Z,952.60
2018-05-17T21:39:32.661Z,952.61
2018-05-17T21:41:58.894Z,952.56
2018-05-17T21:44:25.187Z,952.56
2018-05-17T21:46:51.467Z,952.56
2018-05-17T21:49:17.801Z,952.58
2018-05-17T21:51:44.109Z,952.63
2018-05-17T21:54:10.397Z,952.66
2018-05-17T21:56:36.746Z,952.66
2018-05-17T21:59:03.031Z,952.57
2018-05-17T22:01:29.319Z,952.59
2018-05-17T22:03:55.642Z,952.59
2018-05-17T22:06:21.938Z,952.54
2018-05-17T22:08:48.236Z,952.57
2018-05-17T22:11:14.527Z,952.55
2018-05-17T22:13:40.822Z,952.57
2018-05-17T22:16:07.116Z,952.66
2018-05-17T22:18:33.447Z,952.64
2018-05-17T22:20:59.748Z,952.65
2018-05-17T22:23:26.097Z,952.61
2018-05-17T22:25:52.342Z,952.57
2018-05-17T22:28:18.628Z,952.66
2018-05-17T22:30:44.961Z,952.62
2018-05-17T22:33:11.255Z,952.68
2018-05-17T22:35:37.549Z,952.74
2018-05-17T22:38:03.837Z,952.77
2018-05-17T22:40:30.170Z,952.78
2018-05-17T22:42:56.456Z,952.81
2018-05-17T22:45:22.747Z,952.80
2018-05-17T22:47:49.041Z,952.75
2018-05-17T22:50:15.333Z,952.68
2018-05-17T22:52:41.628Z,952.66
2018-05-17T22:55:07.965Z,952.62
2018-05-17T22:57:34.265Z,952.58
2018-05-17T23:00:00.552Z,952.59
2018-05-17T23:02:26.849Z,952.56
2018-05-17T23:04:53.139Z,952.56
2018-05-17T23:07:19.426Z,952.57
2018-05-17T23:09:45.715Z,952.51
2018-05-17T23:12:12.005Z,952.56
2018-05-17T23:14:38.301Z,952.67
2018-05-17T23:17:04.587Z,952.73
2018-05-17T23:19:30.878Z,952.75
2018-05-17T23:21:57.167Z,952.77
2018-05-17T23:24:23.502Z,952.65
2018-05-17T23:26:49.795Z,952.59
2018-05-17T23:29:16.085Z,952.54
2018-05-17T23:31:42.377Z,952.63
2018-05-17T23:34:08.707Z,952.64
2018-05-17T23:36:35.011Z,952.60
2018-05-17T23:39:01.304Z,952.53
2018-05-17T23:41:27.601Z,952.59
2018-05-17T23:43:53.888Z,952.57
2018-05-17T23:46:20.175Z,952.57
2018-05-17T23:48:46.471Z,952.57
2018-05-17T23:51:12.763Z,952.57
2018-05-17T23:53:39.055Z,952.58
2018-05-17T23:56:05.358Z,952.63
2018-05-17T23:58:31.655Z,952.64
